x

9444090 - Port Angeles, Wa (ptaw1) Weather Station

7:36 - Fri 19th Dec 2014 All times are PST. -8 hours from GMT.

  • Wind
    2mph, 5mph gusts
  • Sea Temp 50°f
  • Luft Temp 43°f
  • Sea Pressure 1009.7mb
  • 9444090 - Port Angeles, Wa
  • 9444090 - Port Angeles, Wa

More Historic Weather Station data

Upgrade to MSW Pro to gain access to the past 30 days of data for over 8000 Wavebouys and Weather Stations around the globe.

Join Pro

Comparision Forecast

View Surf forecast
   
Fr 12/19 7:36 2 5 mph 1009.7mb 50f 43f
7:30 2 7 mph 1009.6mb 50f 43f
7:24 5 6 mph 1009.6mb 50f 43f
7:18 5 6 mph 1009.4mb 50f 43f
7:12 3 5 mph 1009.3mb 50f 43f
7:06 2 6 mph 1009.3mb 50f 44f
7:00 5 7 mph 1009.3mb 50f 44f
6:36  -  3 mph 1008.8mb 50f 46f
6:30 3 5 mph 1009mb 50f 46f
6:24 5 10 mph 1009.1mb 50f 46f
6:18 8 10 mph - - -
6:12 1 6 mph 1008.9mb 50f 45f
6:06 5 7 mph 1009.1mb 50f 45f
6:00 6 9 mph 1009mb 50f 45f
5:36 1 2 mph 1008.5mb 50f 45f
5:30 2 5 mph 1008.4mb 50f 45f
5:24 2 3 mph 1008.2mb 50f 44f
5:18 2 3 mph 1008.1mb 50f 44f
5:12 2 7 mph 1008mb 50f 44f
5:06 8 10 mph 1007.9mb 50f 44f
5:00 7 8 mph 1007.8mb 50f 44f
4:36 6 7 mph 1007.9mb 50f 45f
4:30 6 8 mph 1007.9mb 50f 45f
4:24 6 7 mph 1008mb 50f 45f
4:18 6 9 mph 1008.1mb 50f 45f
4:12 6 8 mph 1008mb 50f 45f
4:06 3
mph
- - -
4:00 3 7 mph 1008mb 50f 45f
3:36 3 6 mph 1007.7mb 50f 45f
3:30 3
mph
1007.6mb 50f 45f
3:24 2 3 mph 1007.5mb 50f 47f
3:18 3 5 mph 1007.4mb 50f 47f
3:12 3 7 mph 1007.3mb 50f 46f
3:06 5 8 mph 1007.3mb 50f 46f
3:00 6 9 mph 1007.5mb 50f 45f
2:36 3 6 mph 1007.2mb 50f 46f
2:30 2 5 mph 1007.2mb 50f 46f
2:24 3 8 mph 1007.2mb 50f 46f
2:18  -  2 mph 1006.9mb 50f 46f
2:12 1 7 mph 1006.8mb 50f 46f
2:06 6 8 mph 1006.8mb 50f 46f
2:00 3 6 mph 1006.7mb 50f 46f
1:36 7
mph
1006.8mb 50f 46f
1:30 6 7 mph 1006.8mb 50f 47f
1:24 2 5 mph 1006.6mb 50f 47f
1:18 3 6 mph 1006.7mb 50f 47f
1:12 3 7 mph 1006.5mb 50f 47f
1:06 5 7 mph 1006.4mb 50f 47f
1:00 5 6 mph 1006.3mb 50f 47f
12:36 3 6 mph 1005.8mb 50f 47f
12:30 5 6 mph 1005.7mb 50f 47f
12:24 3 6 mph 1005.6mb 50f 48f
12:18 3 5 mph 1005.7mb 50f 47f
12:12  -  3 mph 1005.6mb 50f 48f
12:06 3
mph
1005.6mb 50f 48f
12:00 1 5 mph 1005.7mb 50f 49f
Do 12/18 11:36 2 5 mph 1005.3mb 50f 48f
11:30 3 10 mph 1005.2mb 50f 49f
11:24 9 13 mph 1005mb 50f 49f
11:18 7 9 mph 1005.1mb 50f 48f
11:12 5 6 mph 1005.4mb 50f 48f
11:06 2 5 mph 1005.3mb 50f 48f
11:00 5 6 mph 1005.1mb 50f 48f
10:36 3 6 mph 1004.7mb 50f 49f
10:30 5 6 mph 1004.5mb 50f 48f
10:24 2 5 mph 1004.7mb 50f 48f
10:18 3 9 mph 1004.7mb 50f 48f
10:12 6 10 mph 1004.6mb 50f 48f
10:06 6 14 mph 1004.5mb 50f 47f
10:00 8 13 mph 1004.2mb 50f 47f
9:36 5 11 mph 1004mb 50f 47f
9:30 8 14 mph 1004mb 50f 47f
9:24 6 16 mph 1003.9mb 50f 47f
9:18 14 18 mph 1003.5mb 50f 47f
9:12 15 20 mph 1003.7mb 50f 47f
9:06 14 21 mph 1003.4mb 50f 47f
9:00 14 22 mph 1003.2mb 50f 47f
8:36 3 5 mph - - -
8:30 1 3 mph 1002.5mb 50f 46f
8:24 2 3 mph 1002.2mb 50f 46f
8:18 3 7 mph 1002.1mb 50f 46f
8:12 5 8 mph 1002.3mb 50f 46f
8:06  -  8 mph 1001.9mb 50f 46f
8:00 1 5 mph 1001.8mb 50f 46f
7:36 1 8 mph 1002.4mb 50f 46f
7:30 5 7 mph 1002.3mb 50f 46f
7:24 2 3 mph 1002.3mb 50f 46f
7:18 2 6 mph 1002.4mb 50f 46f
7:12 2 5 mph 1002.3mb 50f 46f
7:06 3 6 mph 1002.4mb 50f 46f
7:00 6 7 mph 1003.2mb 50f 46f
6:36 3 6 mph 1003mb 50f 46f
6:30 2 11 mph 1003.1mb 50f 46f
6:24 5 8 mph 1003.3mb 50f 46f
6:18 3 6 mph 1003.8mb 50f 46f
6:12 2 5 mph 1003.7mb 50f 46f
6:06  -  3 mph 1003.8mb 50f 46f
6:00  -  7 mph 1003.8mb 50f 46f
5:30  -  mph 1004.2mb 50f 46f
5:24  -  mph 1004mb 50f 46f
5:18  -  mph 1004.2mb 50f 46f
5:12  -  mph 1004.3mb 50f 46f
5:06  -  mph 1004.4mb 50f 46f
5:00  -  mph 1004.1mb 50f 46f
4:36 5 8 mph 1004.5mb 50f 47f
4:30 2 6 mph 1004.2mb 50f 47f
4:24 2 3 mph 1004.3mb 50f 47f
4:18 1 3 mph 1004.4mb 50f 47f
4:12 1 5 mph 1004.9mb 50f 47f
4:06 5 6 mph 1004.8mb 50f 47f
4:00 2 7 mph 1004.4mb 50f 47f
3:36 1 9 mph 1004.9mb 50f 48f
3:30 7 9 mph 1004.9mb 50f 48f
3:24 6 7 mph 1005mb 50f 48f
3:18 5 6 mph 1005.2mb 50f 48f
3:12 5 6 mph 1005.6mb 50f 48f
3:06 3 5 mph 1005.7mb 50f 48f
3:00 3 6 mph 1005.7mb 50f 48f
2:36 3 6 mph 1005.9mb 50f 48f
2:30 2 6 mph 1005.9mb 50f 47f
2:24 3 9 mph 1005.9mb 50f 47f
2:18 3 6 mph 1006.4mb 50f 48f
2:12 5 7 mph 1006.5mb 50f 47f
2:06 5 8 mph 1006.4mb 50f 47f
2:00 3 6 mph 1006.4mb 50f 47f
1:36 3 7 mph 1006.7mb 50f 47f
1:30 5 8 mph 1007mb 50f 47f
1:24 6 7 mph 1007mb 50f 47f
1:18 5 7 mph 1007mb 50f 47f
1:12 3 6 mph 1007.2mb 50f 47f
1:06 5 8 mph 1007.2mb 50f 47f
1:00 7 8 mph 1007.4mb 50f 47f
12:36 3 5 mph 1007.8mb 50f 47f
12:30 5 6 mph 1007.9mb 50f 46f
12:24 3 6 mph 1008mb 50f 46f
12:18 3 5 mph 1008.2mb 50f 46f
12:12 3
mph
1008.1mb 50f 47f
12:06  -  1 mph 1008.4mb 50f 47f
12:00  -  1 mph 1008.7mb 50f 47f
11:36 1 3 mph 1009mb 50f 47f
11:30 3 5 mph 1009.1mb 50f 46f
11:24 3 5 mph 1009.2mb 50f 46f
11:18 3 5 mph 1009.3mb 50f 46f
11:12 2
mph
1009.7mb 50f 46f
11:06 1 2 mph 1009.8mb 50f 46f
11:00 1 2 mph 1010mb 50f 45f
10:36 2
mph
1010.6mb 50f 45f
10:30  -  2 mph 1010.6mb 50f 44f
10:24 2 3 mph 1010.7mb 50f 44f
10:18 1 2 mph 1010.7mb 50f 44f
10:12 2 3 mph 1010.9mb 50f 44f
10:06  -  3 mph 1010.8mb 50f 44f
10:00 3
mph
1010.9mb 50f 44f
9:36 3 5 mph 1011.2mb 50f 43f
9:30 1 2 mph 1011.3mb 50f 43f
9:24 1 3 mph 1011.3mb 50f 43f
9:18 3 5 mph 1011.4mb 50f 43f
9:12 2 3 mph 1011.5mb 50f 43f
9:06  -  3 mph 1011.5mb 50f 43f
9:00 2 3 mph 1011.6mb 50f 43f
8:54 5 6 mph 1011.6mb 50f 42f
8:48 5 6 mph 1011.5mb 50f 42f
8:36 2 5 mph 1011.5mb 50f 43f
8:30 3 6 mph 1011.6mb 50f 42f
8:24 2 3 mph 1011.7mb 50f 42f
8:18 2 5 mph 1011.7mb 50f 42f
8:12 2 3 mph 1011.7mb 50f 42f
8:06 1 5 mph 1011.8mb 50f 42f
8:00 3 6 mph 1011.8mb 50f 42f
7:54 3 5 mph 1011.8mb 50f 41f
7:48 2 3 mph 1011.8mb 50f 41f
7:36 2 3 mph 1011.6mb 50f 41f
7:30 2 3 mph 1011.6mb 50f 41f
7:24 3 5 mph 1011.7mb 50f 41f
7:18 2 3 mph 1011.8mb 50f 41f
7:12 3 5 mph 1011.9mb 50f 41f
7:06 1 2 mph 1012.1mb 50f 41f
7:00 2 3 mph 1012.2mb 50f 41f
6:54 3 5 mph 1012.2mb 50f 41f
6:48 3 6 mph 1012.3mb 50f 41f
6:30  -  mph 1012.5mb 50f 41f
6:24  -  mph 1012.7mb 50f 41f
6:18  -  mph 1012.7mb 50f 41f
6:12  -  mph 1012.7mb 50f 41f
6:06  -  mph 1012.7mb 50f 41f
5:54  -  mph 1012.7mb 50f 41f
5:48  -  mph 1012.6mb 50f 41f
5:30  -  mph 1012.6mb 50f 42f
5:24  -  mph 1012.5mb 50f 42f
5:18  -  mph 1012.4mb 50f 42f
5:12  -  mph 1012.4mb 50f 42f
5:06  -  mph 1012.4mb 50f 42f
5:00  -  mph 1012.5mb 50f 42f
4:54  -  mph 1012.5mb 50f 42f
4:48  -  mph 1012.5mb 50f 42f
4:36 2
mph
1012.4mb 50f 42f
4:30 2 5 mph 1012.4mb 50f 42f
4:24 3 5 mph 1012.5mb 50f 42f
4:18 3 5 mph 1012.4mb 50f 43f
4:12 2 3 mph 1012.5mb 50f 43f
4:06 2 6 mph 1012.6mb 50f 43f
4:00 3 5 mph 1012.5mb 50f 43f
3:54 2 5 mph 1012.6mb 50f 44f
3:48  -  2 mph 1012.7mb 50f 44f
3:36 1 2 mph 1012.7mb 50f 44f
3:30 2 5 mph 1012.7mb 50f 44f
3:24 5 6 mph 1012.8mb 50f 44f
3:18 5 6 mph 1012.8mb 50f 44f
3:12 5 6 mph 1012.8mb 50f 44f
3:06 2 5 mph 1012.8mb 50f 44f
3:00 3
mph
1012.8mb 50f 44f
2:54 2 3 mph 1012.9mb 50f 45f
2:48 2 3 mph 1013mb 50f 45f
2:36 3 5 mph 1013.1mb 50f 45f
2:30 5 6 mph 1013mb 50f 45f
2:24 5
mph
1012.9mb 50f 45f
2:18 3 6 mph 1012.9mb 50f 45f
2:12 5 6 mph 1012.8mb 50f 45f
2:06 5
mph
1012.8mb 50f 45f
2:00 5 6 mph 1012.7mb 50f 45f
1:54 5
mph
1012.8mb 50f 45f
1:48 3 5 mph 1012.8mb 50f 45f
1:36 5
mph
1012.7mb 50f 45f
1:30 3 5 mph 1012.7mb 50f 45f
1:24 3 5 mph 1012.7mb 50f 45f
1:18 5 6 mph 1012.7mb 50f 45f
1:12 5 6 mph 1012.6mb 50f 45f
1:06 5 6 mph 1012.6mb 50f 45f
1:00 5 6 mph 1012.6mb 50f 45f
12:54 5
mph
1012.5mb 50f 45f
12:48 3 5 mph 1012.4mb 50f 45f
12:36 5 6 mph 1012.5mb 50f 45f
12:30 3 6 mph 1012.4mb 50f 45f
12:24 6 7 mph 1012.6mb 50f 45f
12:18 6
mph
1012.6mb 50f 45f
12:12 3 5 mph 1012.5mb 50f 45f
12:06 5
mph
1012.6mb 50f 45f
12:00 5
mph
1012.6mb 50f 45f
Mi 12/17 11:54 3 5 mph 1012.6mb 50f 45f
11:48 3 5 mph 1012.5mb 50f 45f
11:36 2 5 mph 1012.5mb 50f 45f
11:30 2 3 mph 1012.6mb 50f 45f
11:24 1 3 mph 1012.6mb 50f 46f
11:18 3
mph
1012.6mb 50f 45f
11:12 2 5 mph 1012.6mb 50f 45f
11:06 5
mph
1012.6mb 50f 45f
11:00 3 6 mph 1012.5mb 50f 45f
10:54 5 6 mph 1012.4mb 50f 45f
10:48 5
mph
1012.3mb 50f 45f
10:36 6
mph
1012.3mb 50f 45f
10:30 5 6 mph 1012.3mb 50f 45f
10:24 2 3 mph 1012.3mb 50f 45f
10:18 3 5 mph 1012.3mb 50f 45f
10:12 3 5 mph 1012.4mb 50f 45f
10:06 3 6 mph 1012.4mb 50f 45f
10:00 2 3 mph 1012.4mb 50f 45f
9:54 1 2 mph 1012.4mb 50f 45f
9:48 1 2 mph 1012.4mb 50f 46f
9:36 1 5 mph 1012.4mb 50f 46f
9:30 2 5 mph 1012.4mb 50f 46f
9:24 1 3 mph 1012.4mb 50f 46f
9:18 2 5 mph 1012.3mb 50f 44f
9:12 3 5 mph 1012.3mb 50f 44f
9:06 3 5 mph 1012.3mb 50f 44f
9:00 3 5 mph 1012.3mb 50f 45f
8:36 3 5 mph 1012.1mb 50f 45f
8:30 5
mph
1012.1mb 50f 45f
8:24 3 5 mph 1012mb 50f 45f
8:18 5 6 mph 1012mb 50f 45f
8:12 3 6 mph 1012.1mb 50f 45f
8:06 5 6 mph 1012.1mb 50f 45f
8:00 5 6 mph 1012.1mb 50f 45f
7:54 1 2 mph 1012.1mb 50f 45f
7:48 2 3 mph 1012.1mb 50f 45f
7:36 2 6 mph 1012.2mb 50f 46f
7:30 3 5 mph 1012.1mb 50f 46f
7:24 3 6 mph 1012.2mb 50f 46f
7:18 3 5 mph 1012.2mb 50f 46f
7:12 5 6 mph 1012.2mb 50f 45f
7:06 3 5 mph 1012.1mb 50f 45f
7:00 5
mph
1012.1mb 50f 46f
6:54 3 5 mph 1012mb 50f 46f
6:48 3 5 mph 1012.1mb 50f 46f
6:36 3 6 mph 1012.1mb 50f 46f
6:30 5 6 mph 1012.1mb 50f 46f
6:24 5 6 mph 1011.9mb 50f 46f
6:18 3 5 mph 1011.8mb 50f 46f
6:12 3
mph
1011.7mb 50f 46f
6:06 2 5 mph 1011.7mb 50f 46f
6:00 3 6 mph 1011.8mb 50f 46f
5:54 5 6 mph 1011.9mb 50f 46f
5:48 5
mph
1011.7mb 50f 46f
5:36 3
mph
1011.6mb 50f 46f
5:30 2 5 mph 1011.5mb 50f 46f
5:24 3 5 mph 1011.6mb 50f 46f
5:18 3 5 mph 1011.5mb 50f 46f
5:12 2 3 mph 1011.3mb 50f 46f
5:06 2 3 mph 1011.3mb 50f 46f
5:00 2
mph
1011.3mb 50f 46f
4:54 2 3 mph 1011.3mb 50f 47f
4:48 2
mph
1011.3mb 50f 47f
4:36 1 2 mph 1011.2mb 50f 47f
4:30 2
mph
1011.2mb 50f 47f
4:24 1
mph
1011mb 50f 47f
4:18  -  1 mph 1010.8mb 50f 47f
4:12 1 2 mph 1010.7mb 50f 47f
4:06  -  1 mph - - -
4:00  -  2 mph - - -
3:54 2
mph
1010.8mb 50f 47f
3:48 2 3 mph 1010.7mb 50f 47f
3:36 3
mph
1010.6mb 50f 47f
3:30 2 3 mph 1010.5mb 50f 47f
3:24 2 3 mph 1010.5mb 50f 47f
3:18 2 3 mph 1010.4mb 50f 47f
3:12 2 5 mph 1010.4mb 50f 47f
3:06 2 3 mph 1010.4mb 50f 47f
3:00 3
mph
1010.5mb 50f 47f
2:54 2 3 mph 1010.4mb 50f 48f
2:48  -  1 mph 1010.2mb 50f 48f
2:36  -  1 mph 1010.2mb 50f 48f
2:30  -  1 mph 1010.2mb 50f 48f
2:24 1 2 mph 1010.1mb 50f 48f
2:18  -  2 mph 1010.2mb 50f 48f
2:12 2 3 mph 1010.2mb 50f 47f
2:06 2 3 mph 1010.2mb 50f 47f
2:00 2 3 mph 1010.2mb 50f 47f
1:54 2 3 mph 1010.1mb 50f 47f
1:48 3 5 mph 1010.1mb 50f 47f
1:36 3 6 mph 1010mb 50f 47f
1:30 5 6 mph 1010mb 50f 47f
1:24 5 6 mph 1010mb 50f 47f
1:18 6 7 mph 1010mb 50f 47f
1:12 6 7 mph 1010mb 50f 47f
1:06 5 6 mph 1010mb 50f 47f
1:00 5 6 mph 1010mb 50f 47f
12:54 5 6 mph - - -
12:48 3 5 mph 1010mb 50f 47f
12:36 3 5 mph 1010mb 50f 47f
12:30 2 3 mph 1009.9mb 50f 47f
12:24 2 3 mph 1009.9mb 50f 47f
12:18 3
mph
- - -
12:12 2 3 mph 1010mb 50f 47f
12:06 2 3 mph - - -
12:00 1 2 mph 1010mb 50f 47f
11:54 1 2 mph 1010.1mb 50f 47f
11:48  -  5 mph 1010.1mb 50f 47f
11:36 5 6 mph 1010.3mb 50f 47f
11:30 6 7 mph 1010.3mb 50f 47f
11:24 6 7 mph 1010.2mb 50f 47f
11:18 5 7 mph - - -
11:12 6 7 mph 1010.3mb 50f 47f
11:06 5 6 mph 1010.3mb 50f 47f
11:00 3 5 mph 1010.3mb 50f 47f
10:54 3 7 mph 1010.4mb 50f 47f
10:48 5 6 mph 1010.3mb 50f 47f
10:36 5 7 mph 1010.1mb 50f 47f
10:30 5 7 mph 1010.2mb 50f 47f
10:24 6 7 mph 1010.2mb 50f 47f
10:18 6 7 mph 1010.1mb 50f 47f
10:12 6 7 mph 1010.1mb 50f 47f
10:06 5 7 mph 1010mb 50f 47f
10:00 3 5 mph - - -
9:54 2 3 mph 1010mb 51f 46f
9:48 2 3 mph 1009.9mb 51f 46f
9:36 2 3 mph 1009.9mb 51f 46f
9:30 2 5 mph 1009.8mb 50f 46f
9:24 3 5 mph 1009.7mb 51f 46f
9:18 3
mph
1009.7mb 51f 45f
9:12 2 3 mph 1009.6mb 51f 45f
9:06 2 5 mph 1009.5mb 51f 45f
9:00 3 5 mph 1009.5mb 51f 45f
8:36 5 7 mph 1009.2mb 51f 45f
8:30 5 6 mph 1009.1mb 51f 45f
8:24 3 7 mph 1009mb 51f 45f
8:18 6 8 mph 1009mb 51f 45f
8:12 6 8 mph 1008.9mb 51f 45f
8:06 6 7 mph 1009mb 50f 45f
8:00 5 7 mph 1009mb 50f 45f
7:54 6 8 mph 1009mb 50f 45f
7:48 7 8 mph 1009mb 50f 45f
7:36 6 10 mph 1008.9mb 50f 45f
7:30 6 10 mph 1008.9mb 50f 45f
7:24 7 10 mph 1008.8mb 50f 45f
7:18 9 13 mph 1008.7mb 50f 44f
7:12 9 11 mph 1008.7mb 50f 43f
7:06 7 8 mph 1008.7mb 50f 43f
7:00 7 8 mph 1008.7mb 50f 43f
6:54 7 9 mph 1008.7mb 50f 43f
6:48 7 9 mph 1008.7mb 50f 43f
6:36 6 7 mph 1008.6mb 50f 43f
6:30 6
mph
1008.6mb 50f 42f
6:24 6 7 mph 1008.6mb 50f 42f
6:18 6 7 mph 1008.6mb 50f 42f
6:12 6 7 mph 1008.6mb 50f 42f
6:06 6 8 mph 1008.6mb 50f 42f
6:00 6 8 mph 1008.7mb 50f 42f
5:54 7
mph
1008.6mb 50f 42f
5:48 7 8 mph 1008.6mb 50f 42f
5:36 6 7 mph 1008.4mb 50f 42f
5:30 6 7 mph - - -
5:24 6 8 mph 1008.5mb 50f 42f
5:18 6 7 mph 1008.4mb 50f 42f
5:12 5 7 mph 1008.4mb 51f 42f
5:06 6 8 mph 1008.5mb 51f 42f
5:00 6 8 mph 1008.4mb 51f 42f
4:54 7 8 mph 1008.5mb 51f 42f
4:48 6 7 mph 1008.5mb 51f 42f
4:24  -  mph 1008.6mb 51f 42f
4:18  -  mph 1008.6mb 51f 43f
4:12  -  mph 1008.6mb 51f 43f
4:06  -  mph 1008.7mb 51f 43f
4:00  -  mph 1008.7mb 51f 42f
3:48  -  mph 1008.6mb 51f 43f
3:36 3 5 mph 1008.7mb 51f 43f
3:30 5 6 mph 1008.6mb 51f 43f
3:24 5 6 mph 1008.7mb 51f 43f
3:18 6 7 mph 1008.6mb 51f 43f
3:12 5 6 mph 1008.6mb 51f 44f
3:06 5 6 mph 1008.7mb 51f 43f
3:00 5 6 mph - - -
2:54 5 7 mph 1008.9mb 51f 43f
2:48 5 7 mph 1009mb 51f 43f
2:36 5 7 mph 1008.9mb 51f 43f
2:30 5 6 mph 1009mb 51f 43f
2:24 5 6 mph 1009mb 51f 43f
2:18 6 7 mph 1009mb 51f 43f
2:12 5 6 mph 1009mb 51f 43f
2:06 6
mph
1008.9mb 51f 44f
2:00 5 6 mph 1008.9mb 51f 44f
1:54 5 7 mph 1008.9mb 51f 44f
1:48 6
mph
1008.9mb 51f 43f
1:36 5 6 mph 1008.9mb 51f 43f
1:30 5 6 mph 1009mb 51f 43f
1:24 6 7 mph 1008.9mb 51f 44f
1:18 6
mph
- - -
1:12 5 6 mph 1009mb 51f 44f
1:06 5 6 mph 1009mb 51f 44f
1:00 6
mph
1009mb 51f 44f
12:54 5 7 mph 1009mb 51f 44f
12:48 7 8 mph - - -
12:36 5 7 mph 1009.1mb 51f 43f
12:30 6 7 mph 1009.2mb 51f 43f
12:24 6
mph
1009.3mb 51f 43f
12:18 6 7 mph 1009.3mb 51f 43f
12:12 5 6 mph 1009.3mb 51f 43f
12:06 3 6 mph 1009.3mb 51f 43f
12:00 6 7 mph 1009.4mb 51f 43f
Di 12/16 11:54 6
mph
1009.4mb 51f 43f
11:48 3 6 mph 1009.5mb 51f 43f
11:36 2 6 mph 1009.5mb 51f 43f
11:30 6 7 mph 1009.5mb 51f 42f
11:24 6 7 mph 1009.6mb 51f 42f
11:18 7 8 mph 1009.6mb 51f 42f
11:12 6 7 mph 1009.6mb 51f 42f
11:06 7 8 mph 1009.7mb 51f 43f
11:00 7
mph
1009.6mb 51f 42f
10:54 5 7 mph 1009.6mb 51f 42f
10:48 6 7 mph 1009.7mb 51f 42f
10:36 5 6 mph 1009.7mb 51f 42f
10:30 5 6 mph 1009.6mb 51f 42f
10:24 6 8 mph 1009.6mb 51f 42f
10:18 7 8 mph 1009.6mb 51f 42f
10:12 6 9 mph 1009.5mb 51f 42f
10:06 8 9 mph 1009.5mb 51f 42f
10:00 7 8 mph 1009.5mb 51f 42f
9:54 6 7 mph 1009.5mb 51f 42f
9:48 6 7 mph 1009.5mb 51f 41f
9:36 6 7 mph 1009.5mb 51f 41f
9:30 5 6 mph 1009.4mb 51f 41f
9:24 6 7 mph 1009.5mb 51f 41f
9:18 6 8 mph 1009.5mb 51f 41f
9:12 6 7 mph 1009.6mb 51f 41f
9:06 6 7 mph 1009.6mb 51f 41f
9:00 6 7 mph 1009.6mb 51f 41f
8:54 5 7 mph 1009.6mb 51f 42f
8:48 8 10 mph 1009.6mb 51f 42f
8:36 7 8 mph 1009.6mb 51f 41f
8:30 7 8 mph 1009.5mb 51f 41f
8:24 7 8 mph 1009.6mb 51f 41f
8:18 6 7 mph 1009.6mb 51f 42f
8:12 6 7 mph 1009.6mb 51f 41f
8:06 6 8 mph 1009.7mb 51f 41f
8:00 6 8 mph 1009.7mb 51f 41f
7:54 5 9 mph 1009.7mb 51f 41f
7:48 9 10 mph 1009.8mb 51f 41f
7:36 5 6 mph 1009.7mb 51f 41f
7:30 6 10 mph 1009.8mb 51f 41f
7:24 7 9 mph 1009.8mb 51f 41f
7:18 7 8 mph 1009.8mb 51f 42f
7:12 5 7 mph 1009.7mb 51f 42f
7:06 7 8 mph 1009.8mb 51f 42f
7:00 5 7 mph 1009.8mb 51f 42f
6:54 6 7 mph 1009.8mb 51f 42f
6:48 6 7 mph 1009.9mb 51f 42f
6:36 5 8 mph 1009.9mb 51f 42f
6:30 6 7 mph 1009.9mb 51f 42f
6:24 8 10 mph 1009.9mb 51f 43f
6:18 6 8 mph 1009.9mb 51f 43f
6:12 6 7 mph 1009.8mb 51f 43f
6:06 5 6 mph 1009.8mb 51f 43f
6:00 5 6 mph 1009.8mb 51f 43f
5:54 2 5 mph 1009.8mb 51f 43f
5:48 2 3 mph 1009.7mb 51f 43f
5:36 3 5 mph 1009.7mb 51f 44f
5:30 5 6 mph 1009.7mb 51f 44f
5:24 5 6 mph 1009.6mb 51f 44f
5:18 6
mph
1009.6mb 51f 44f
5:12 2 5 mph 1009.7mb 51f 45f
5:06 2 3 mph 1009.7mb 51f 45f
5:00 3
mph
1009.6mb 51f 45f
4:54 2 3 mph 1009.6mb 51f 46f
4:48  -  1 mph 1009.7mb 51f 46f
4:36  -  3 mph 1009.7mb 51f 46f
4:30 1 3 mph 1009.6mb 51f 47f
4:24  -  1 mph 1009.4mb 51f 47f
4:18 2
mph
1009.5mb 51f 47f
4:12 2
mph
1009.5mb 51f 48f
4:06 1 2 mph 1009.5mb 51f 48f
4:00 2 3 mph 1009.4mb 51f 48f
3:54 2
mph
1009.5mb 51f 48f
3:48 2 3 mph 1009.5mb 51f 48f
3:36 2 3 mph 1009.4mb 51f 48f
3:30 1 3 mph 1009.3mb 51f 48f
3:24 3 5 mph 1009.3mb 51f 48f
3:18 3 5 mph 1009.3mb 51f 48f
3:12 3 6 mph 1009.2mb 51f 48f
3:06 6 8 mph 1009.2mb 51f 49f
3:00 7 9 mph 1009.1mb 51f 48f
2:54 8 9 mph 1009.1mb 51f 49f
2:48 8 9 mph 1009.1mb 51f 49f
2:36 3 7 mph 1009mb 51f 49f
2:30 1 3 mph 1009mb 51f 51f
2:24 2 3 mph 1008.9mb 51f 50f
2:18 2 3 mph 1008.9mb 51f 49f
2:12 3
mph
1008.9mb 51f 49f
2:06 3 5 mph 1008.9mb 51f 49f
2:00 2 3 mph 1008.9mb 51f 49f
1:54 1 2 mph 1008.9mb 51f 49f
1:48 1 3 mph 1008.8mb 51f 50f
1:36 3 5 mph 1008.7mb 51f 49f
1:30 5
mph
1008.7mb 51f 49f
1:24 3 5 mph 1008.7mb 51f 49f
1:18 3 5 mph 1008.7mb 51f 49f
1:12 5
mph
1008.7mb 51f 49f
1:06 3 5 mph 1008.7mb 51f 50f
1:00 2 3 mph 1008.6mb 51f 50f
12:54 2 3 mph 1008.7mb 51f 50f
12:48 2 3 mph 1008.7mb 51f 49f
12:36 2 3 mph 1008.7mb 51f 49f
12:30 5 6 mph 1008.7mb 51f 49f
12:24 3 5 mph 1008.7mb 51f 49f
12:18 3
mph
1008.8mb 51f 49f
12:12 2 5 mph 1008.8mb 51f 49f
12:06 3 5 mph 1008.8mb 51f 49f
12:00 3 5 mph 1008.8mb 51f 50f
11:54 3 7 mph 1008.8mb 51f 49f
11:48 6 7 mph 1008.8mb 51f 49f
11:36 1 6 mph 1008.8mb 51f 49f
11:30 3 7 mph 1008.8mb 51f 49f
11:24 2 6 mph 1008.8mb 51f 49f
11:18 3 6 mph 1008.8mb 51f 49f
11:12 3 5 mph 1008.8mb 51f 49f
11:06 2 6 mph 1008.9mb 51f 49f
11:00 5 7 mph 1008.9mb 51f 48f
10:54 2 6 mph 1009mb 51f 48f
10:48 3 6 mph 1009mb 51f 48f
10:36 3 7 mph 1009.1mb 51f 47f
10:30 5 6 mph 1009.1mb 51f 47f
10:24 5 6 mph 1009.1mb 51f 46f
10:18 5 6 mph 1009.1mb 51f 46f
10:12 3
mph
1009.1mb 51f 46f
10:06 2 3 mph 1009mb 51f 45f
10:00 2 3 mph 1009.1mb 51f 45f
9:54 1 3 mph 1009mb 51f 45f
9:48 5 6 mph 1009mb 51f 45f
9:36 5 6 mph 1008.9mb 51f 44f
9:30 3 5 mph 1008.9mb 51f 44f
9:24 2 3 mph 1008.9mb 51f 43f
9:18 3 5 mph 1008.8mb 51f 43f
9:12 3 5 mph 1008.8mb 51f 43f
9:06 2 3 mph 1008.8mb 51f 42f
9:00 2 5 mph 1008.8mb 51f 42f
8:36 3 5 mph 1008.7mb 51f 42f
8:30 2
mph
1008.7mb 51f 43f
8:24  -  1 mph 1008.7mb 51f 43f
8:18 1 2 mph 1008.7mb 51f 43f
8:12 2
mph
1008.6mb 51f 43f
8:06 1 5 mph 1008.5mb 51f 43f
8:00 3 6 mph 1008.5mb 51f 42f
7:54 2 3 mph 1008.6mb 51f 42f
7:48 3 7 mph 1008.5mb 51f 42f
7:36 3 5 mph 1008.4mb 51f 43f
7:30 3 6 mph 1008.4mb 51f 42f
7:24 5 6 mph 1008.4mb 51f 42f
7:18 3 7 mph 1008.4mb 51f 42f
7:12 6 8 mph 1008.4mb 51f 42f
7:06 6
mph
1008.4mb 51f 42f
7:00 5 6 mph 1008.5mb 51f 42f
6:54 6
mph
1008.4mb 51f 43f
6:48 5 6 mph 1008.4mb 51f 43f
6:36 7 8 mph 1008.4mb 51f 42f
6:30 7 8 mph 1008.4mb 51f 42f
6:24 8 9 mph 1008.4mb 51f 42f
6:18 7 8 mph 1008.4mb 51f 43f
6:12 7 8 mph 1008.4mb 51f 43f
6:06 7 8 mph 1008.4mb 51f 43f
6:00 7 8 mph 1008.4mb 51f 43f
5:54 7 8 mph 1008.5mb 50f 43f
5:48 6 7 mph 1008.5mb 51f 43f
5:36 5 6 mph 1008.4mb 51f 42f
5:30 3 5 mph 1008.4mb 51f 43f
5:24 2 6 mph 1008.4mb 51f 42f
5:18 6 7 mph 1008.4mb 51f 42f
5:12 5 6 mph 1008.4mb 51f 42f
5:06 3 5 mph 1008.4mb 51f 42f
5:00 3 5 mph 1008.4mb 51f 42f
4:54 2 3 mph 1008.5mb 51f 43f
4:48 2 5 mph 1008.5mb 51f 43f
4:36 5 6 mph 1008.5mb 51f 43f
4:30 3 5 mph 1008.6mb 51f 43f
4:24 2
mph
1008.6mb 51f 43f
4:18 2 3 mph 1008.5mb 51f 43f
4:12 2
mph
1008.6mb 51f 43f
4:06 2 3 mph 1008.7mb 51f 44f
4:00 3 5 mph 1008.7mb 51f 43f
3:54 3
mph
1008.7mb 51f 43f
3:48 2
mph
1008.7mb 51f 44f
3:24  -  mph 1008.7mb 51f 44f
3:18  -  mph 1008.7mb 51f 44f
3:12  -  mph 1008.7mb 51f 44f
3:06  -  mph 1008.7mb 51f 44f
3:00  -  mph 1008.7mb 51f 44f
2:54  -  mph 1008.7mb 51f 44f
2:48  -  mph 1008.8mb 51f 44f
2:36 2 3 mph 1008.8mb 51f 45f
2:30 2 5 mph 1008.8mb 51f 45f
2:24 3 5 mph 1008.8mb 51f 45f
2:18 2 5 mph 1008.7mb 50f 45f
2:12 3 5 mph 1008.7mb 50f 45f
2:06 2
mph
1008.7mb 50f 45f
2:00 2 3 mph - - -
1:54  -  2 mph 1008.5mb 51f 46f
1:48  -  2 mph 1008.5mb 51f 46f
1:36 2 5 mph 1008.5mb 51f 46f
1:30 3 5 mph 1008.5mb 51f 46f
1:24 3 6 mph 1008.5mb 51f 46f
1:18 5 6 mph 1008.5mb 51f 46f
1:12 5 6 mph 1008.4mb 51f 46f
1:06 5 6 mph - - -
1:00 5 8 mph - - -
12:54 6 8 mph 1008.4mb 51f 47f
12:48 6 9 mph 1008.4mb 51f 47f
12:36 7 10 mph 1008.5mb 51f 47f
12:30 7 11 mph 1008.5mb 51f 47f
12:24 8 11 mph 1008.5mb 51f 47f
12:18 7 9 mph 1008.6mb 51f 47f
12:12 6 7 mph 1008.6mb 51f 47f
12:06 6 8 mph 1008.7mb 51f 47f
12:00 7 9 mph 1008.8mb 51f 46f
Mo 12/15 11:54 5 7 mph 1008.7mb 51f 46f
11:48 6 9 mph 1008.8mb 51f 47f
11:36 6 9 mph 1008.7mb 51f 47f
11:30 7 9 mph 1008.7mb 51f 47f
11:24 8 13 mph 1008.7mb 51f 47f
11:18 8 13 mph 1008.7mb 51f 47f
11:12 7 13 mph 1008.6mb 51f 47f
11:06 8 11 mph 1008.7mb 51f 47f
11:00 6 8 mph 1008.7mb 51f 47f
10:54 6 8 mph 1008.7mb 51f 47f
10:48 6 10 mph 1008.7mb 51f 46f
10:36 6 10 mph 1008.6mb 51f 46f
10:30 5 8 mph 1008.6mb 51f 45f
10:24 5 6 mph 1008.6mb 51f 45f
10:18 5 7 mph 1008.6mb 51f 46f
10:12 2
mph
1008.6mb 51f 47f
10:06  -  2 mph 1008.6mb 51f 47f
10:00  -  2 mph 1008.6mb 51f 46f
9:54  -  3 mph 1008.5mb 51f 46f
9:48 2 6 mph 1008.6mb 51f 46f
9:36 6 8 mph 1008.6mb 51f 46f
9:30 5 8 mph 1008.6mb 51f 47f
9:24 6 8 mph 1008.6mb 51f 47f
9:18 7 11 mph 1008.6mb 51f 47f
9:12 9 10 mph 1008.6mb 51f 47f
9:06 8 11 mph 1008.6mb 50f 47f
9:00 9 14 mph 1008.6mb 50f 47f
8:54 8 10 mph 1008.7mb 50f 47f
8:48 8 9 mph 1008.8mb 50f 47f
8:36 8 10 mph 1008.8mb 50f 47f
8:30 7 13 mph 1008.8mb 50f 46f
8:24 6 10 mph 1008.8mb 50f 46f
8:18 6 10 mph 1008.8mb 50f 46f
8:12 6 8 mph 1008.9mb 50f 46f
8:06 6 9 mph 1009mb 50f 46f
8:00 6 11 mph 1008.9mb 50f 46f
7:54 8 11 mph 1008.9mb 50f 47f
7:48 8 11 mph 1008.8mb 50f 46f
7:36 6 7 mph 1009mb 50f 45f
7:30 5 7 mph 1009mb 50f 46f
7:24 5 6 mph 1009.1mb 50f 46f
7:18 6 7 mph 1009.1mb 50f 46f
7:12 6 8 mph 1009.1mb 50f 46f
7:06 7 8 mph 1009mb 50f 46f
7:00 5 7 mph 1009mb 50f 46f
6:54 6 8 mph 1009mb 50f 46f
6:48 6 7 mph 1009.1mb 50f 46f
6:36 5 8 mph 1009mb 50f 46f
6:30 5 7 mph 1009.1mb 50f 46f
6:24 2 3 mph 1009.2mb 50f 47f
6:18 2 3 mph 1009.2mb 50f 47f
6:12  -  2 mph 1009.2mb 50f 47f
6:06 2 3 mph 1009.2mb 51f 47f
6:00 2 6 mph 1009.1mb 51f 46f
5:54 6 7 mph 1009.1mb 51f 46f
5:48 5 6 mph 1009.1mb 51f 46f
5:36 3 5 mph 1009.2mb 51f 46f
5:30 2 5 mph 1009.2mb 51f 46f
5:24 5
mph
1009.3mb 51f 46f
5:18 3 5 mph 1009.3mb 51f 46f
5:12 2 6 mph 1009.2mb 51f 46f
5:06 3 5 mph 1009.2mb 51f 46f